Time;durP1;ratioP1;P1;durP2;ratioP2;P2;SDS_P1;SDS_P2;PMS_P1;PMS_P2;Temp;Humidity;BMP_temperature;BMP_pressure;BME280_temperature;BME280_humidity;BME280_pressure;Samples;Min_cycle;Max_cycle;Signal;HPM_P1;HPM_P2
2022/03/02 00:02:01;;;;;;;9.80;8.80;;;16.80;48.70;;;;;;5051550;28;20220;-65
2022/03/02 00:04:27;;;;;;;9.82;8.82;;;16.80;48.60;;;;;;5051363;28;20262;-65
2022/03/02 00:06:52;;;;;;;9.32;8.35;;;16.80;48.60;;;;;;5051429;28;20587;-64
2022/03/02 00:09:18;;;;;;;9.50;8.70;;;16.80;48.60;;;;;;5051865;28;20175;-62
2022/03/02 00:11:43;;;;;;;9.20;8.30;;;16.70;48.60;;;;;;5051162;28;20277;-62
2022/03/02 00:14:09;;;;;;;9.23;8.43;;;16.70;48.60;;;;;;5051388;28;20174;-62
2022/03/02 00:16:37;;;;;;;9.52;8.63;;;16.70;48.60;;;;;;5051593;28;20268;-63
2022/03/02 00:19:03;;;;;;;9.82;8.88;;;16.70;48.60;;;;;;5051025;28;20175;-63
2022/03/02 00:21:28;;;;;;;10.15;9.18;;;16.70;48.60;;;;;;5051894;28;20171;-62
2022/03/02 00:23:54;;;;;;;9.63;8.77;;;16.70;48.60;;;;;;5051554;28;20262;-62
2022/03/02 00:26:19;;;;;;;9.10;8.20;;;16.70;48.60;;;;;;5051054;28;20211;-61
2022/03/02 00:28:45;;;;;;;9.68;8.77;;;16.70;48.60;;;;;;5051791;28;20182;-62
2022/03/02 00:31:10;;;;;;;10.38;9.38;;;16.60;49.10;;;;;;5051497;28;20194;-61
2022/03/02 00:33:36;;;;;;;10.40;9.07;;;16.70;49.20;;;;;;5054852;28;20505;-62
2022/03/02 00:36:02;;;;;;;10.07;9.18;;;16.60;48.50;;;;;;5055469;28;20214;-63
2022/03/02 00:38:27;;;;;;;9.13;8.23;;;16.60;48.50;;;;;;5055674;28;20179;-64
2022/03/02 00:40:52;;;;;;;10.18;9.25;;;16.60;48.50;;;;;;5054658;28;20227;-65
2022/03/02 00:43:18;;;;;;;9.90;8.90;;;16.60;48.50;;;;;;5055375;28;20172;-63
2022/03/02 00:45:44;;;;;;;9.80;8.90;;;16.60;48.50;;;;;;5055297;28;20186;-63
2022/03/02 00:48:09;;;;;;;9.95;8.95;;;16.60;48.50;;;;;;5054225;28;20172;-62
2022/03/02 00:50:35;;;;;;;10.73;9.70;;;16.60;49.20;;;;;;5055580;28;20546;-62
2022/03/02 00:53:02;;;;;;;9.70;8.77;;;16.60;48.60;;;;;;5055143;28;20175;-62
2022/03/02 00:55:28;;;;;;;11.15;9.40;;;16.60;48.60;;;;;;5054323;28;20587;-62
2022/03/02 00:57:53;;;;;;;11.05;9.85;;;16.60;48.60;;;;;;5054783;28;20171;-63
2022/03/02 01:00:19;;;;;;;9.85;8.95;;;16.50;48.60;;;;;;5054370;28;20186;-64
2022/03/02 01:02:46;;;;;;;10.75;9.65;;;16.50;48.50;;;;;;5055093;28;20175;-64
2022/03/02 01:05:11;;;;;;;10.10;9.13;;;16.60;48.60;;;;;;5054901;28;20171;-64
2022/03/02 01:07:37;;;;;;;10.27;9.38;;;16.50;48.50;;;;;;5054558;28;20253;-63
2022/03/02 01:10:03;;;;;;;10.35;9.35;;;16.50;48.60;;;;;;5054715;28;20183;-62
2022/03/02 01:12:28;;;;;;;9.80;8.93;;;16.50;48.50;;;;;;5055008;28;20266;-61
2022/03/02 01:14:54;;;;;;;9.52;8.60;;;16.50;48.50;;;;;;5053773;28;20757;-63
2022/03/02 01:17:20;;;;;;;10.27;9.38;;;16.50;48.50;;;;;;5054624;28;20186;-63
2022/03/02 01:19:46;;;;;;;10.18;9.27;;;16.50;48.60;;;;;;5054834;28;20703;-63
2022/03/02 01:22:12;;;;;;;10.43;9.43;;;16.50;48.50;;;;;;5053956;28;20762;-63
2022/03/02 01:24:38;;;;;;;9.68;8.77;;;16.50;48.60;;;;;;5054610;28;20656;-62
2022/03/02 01:27:03;;;;;;;10.55;9.55;;;16.50;48.50;;;;;;5054473;28;20181;-61
2022/03/02 01:29:30;;;;;;;10.40;9.35;;;16.40;48.50;;;;;;5053864;28;20165;-61
2022/03/02 01:31:56;;;;;;;9.77;8.80;;;16.40;48.50;;;;;;5054505;28;20175;-61
2022/03/02 01:34:22;;;;;;;10.65;9.55;;;16.40;48.50;;;;;;5054729;28;20184;-63
2022/03/02 01:36:47;;;;;;;9.90;9.00;;;16.40;48.50;;;;;;5053893;28;20237;-63
2022/03/02 01:39:13;;;;;;;11.43;10.30;;;16.40;48.50;;;;;;5054310;28;20171;-63
2022/03/02 01:41:38;;;;;;;9.73;8.82;;;16.40;48.50;;;;;;5054508;28;20179;-62
2022/03/02 01:44:04;;;;;;;9.77;8.88;;;16.40;48.50;;;;;;5052601;28;20534;-62
2022/03/02 01:46:30;;;;;;;10.10;9.13;;;16.40;48.50;;;;;;5054564;28;20199;-62
2022/03/02 01:48:55;;;;;;;10.32;9.30;;;16.40;48.50;;;;;;5054064;28;20664;-62
2022/03/02 01:51:21;;;;;;;10.27;9.32;;;16.40;48.50;;;;;;5053711;28;20203;-62
2022/03/02 01:53:46;;;;;;;10.45;9.45;;;16.40;48.50;;;;;;5054133;28;20302;-61
2022/03/02 01:56:12;;;;;;;9.82;8.93;;;16.40;48.50;;;;;;5053636;28;20261;-61
2022/03/02 01:58:38;;;;;;;10.52;9.52;;;16.30;48.50;;;;;;5053313;28;20225;-62
2022/03/02 02:01:03;;;;;;;10.50;9.50;;;16.30;48.50;;;;;;5053513;28;20183;-63
2022/03/02 02:03:29;;;;;;;9.95;9.05;;;16.30;48.50;;;;;;5054059;28;20253;-63
2022/03/02 02:05:55;;;;;;;11.27;10.10;;;16.30;48.50;;;;;;5053104;28;20550;-65
2022/03/02 02:08:20;;;;;;;11.45;9.27;;;16.30;48.50;;;;;;5054016;28;20518;-63
2022/03/02 02:10:46;;;;;;;10.27;9.27;;;16.30;48.40;;;;;;5053129;28;20274;-62
2022/03/02 02:13:12;;;;;;;10.90;9.73;;;16.30;48.40;;;;;;5053469;28;20238;-62
2022/03/02 02:15:37;;;;;;;11.43;9.80;;;16.30;48.50;;;;;;5053554;28;20642;-62
2022/03/02 02:18:03;;;;;;;10.63;9.57;;;16.30;48.50;;;;;;5052824;28;20633;-63
2022/03/02 02:20:33;;;;;;;10.88;9.82;;;16.30;48.60;;;;;;5053838;28;20222;-63
2022/03/02 02:22:58;;;;;;;10.73;9.73;;;16.30;48.50;;;;;;5053388;28;20176;-63
2022/03/02 02:25:23;;;;;;;10.00;9.02;;;16.30;48.40;;;;;;5052927;28;20677;-62
2022/03/02 02:27:49;;;;;;;11.35;10.25;;;16.20;48.40;;;;;;5053329;28;20171;-61
2022/03/02 02:30:15;;;;;;;10.30;9.30;;;16.20;48.40;;;;;;5053399;28;20236;-61
2022/03/02 02:32:41;;;;;;;11.23;9.85;;;16.30;48.50;;;;;;5052791;28;20262;-61
2022/03/02 02:35:08;;;;;;;11.05;9.93;;;16.20;48.40;;;;;;5052961;28;20195;-63
2022/03/02 02:37:34;;;;;;;9.90;8.90;;;16.20;48.40;;;;;;5053352;28;20240;-63
2022/03/02 02:40:01;;;;;;;9.57;8.68;;;16.20;48.50;;;;;;5052290;28;20294;-64
2022/03/02 02:42:26;;;;;;;10.63;9.63;;;16.20;48.40;;;;;;5053063;28;20181;-63
2022/03/02 02:44:53;;;;;;;11.23;10.02;;;16.20;48.40;;;;;;5053017;28;20179;-62
2022/03/02 02:47:18;;;;;;;10.35;9.35;;;16.20;48.40;;;;;;5051232;28;20175;-62
2022/03/02 02:49:44;;;;;;;10.75;9.75;;;16.20;48.50;;;;;;5053128;28;20179;-61
2022/03/02 02:52:10;;;;;;;11.23;10.15;;;16.20;48.50;;;;;;5052739;28;20163;-62
2022/03/02 02:54:36;;;;;;;9.88;8.90;;;16.20;48.40;;;;;;5051622;28;20227;-61
2022/03/02 02:57:01;;;;;;;10.57;9.48;;;16.20;48.50;;;;;;5052157;28;20572;-62
2022/03/02 02:59:27;;;;;;;9.98;9.07;;;16.20;48.40;;;;;;5052809;28;20241;-62
2022/03/02 03:01:52;;;;;;;11.30;10.20;;;16.20;48.40;;;;;;5052085;28;20594;-62
2022/03/02 03:04:18;;;;;;;10.80;9.80;;;16.10;48.50;;;;;;5052937;28;20248;-62
2022/03/02 03:06:43;;;;;;;11.45;10.35;;;16.10;48.40;;;;;;5052805;28;20211;-63
2022/03/02 03:09:09;;;;;;;11.48;10.38;;;16.10;48.50;;;;;;5051784;28;20253;-62
2022/03/02 03:11:41;;;;;;;10.65;9.65;;;16.10;48.50;;;;;;5052595;28;20175;-62
2022/03/02 03:14:09;;;;;;;10.80;9.80;;;16.10;48.50;;;;;;5051763;28;20180;-62
2022/03/02 03:16:35;;;;;;;10.85;9.73;;;16.10;48.50;;;;;;5052574;28;20246;-62
2022/03/02 03:19:01;;;;;;;11.30;9.60;;;16.10;48.50;;;;;;5051053;28;20206;-63
2022/03/02 03:21:26;;;;;;;11.45;10.35;;;16.10;48.50;;;;;;5051825;28;20221;-63
2022/03/02 03:23:52;;;;;;;10.45;9.48;;;16.10;48.50;;;;;;5052525;28;20181;-62
2022/03/02 03:26:17;;;;;;;10.70;9.70;;;16.10;48.50;;;;;;5051928;28;20175;-60
2022/03/02 03:28:43;;;;;;;11.07;10.07;;;16.00;48.40;;;;;;5051923;28;20626;-60
2022/03/02 03:31:08;;;;;;;10.65;9.65;;;16.00;48.40;;;;;;5052139;28;20281;-60
2022/03/02 03:33:34;;;;;;;10.88;9.73;;;16.00;48.40;;;;;;5052374;28;20262;-61
2022/03/02 03:35:59;;;;;;;10.77;9.65;;;16.00;48.40;;;;;;5051247;28;20301;-63
2022/03/02 03:38:25;;;;;;;10.38;9.40;;;16.00;48.50;;;;;;5052149;28;20261;-64
2022/03/02 03:40:50;;;;;;;10.70;9.60;;;16.00;48.40;;;;;;5052094;28;20191;-63
2022/03/02 03:43:16;;;;;;;12.00;10.80;;;16.00;48.50;;;;;;5050930;28;20578;-63
2022/03/02 03:45:41;;;;;;;11.60;10.50;;;16.00;49.10;;;;;;5052199;28;20179;-62
2022/03/02 03:48:07;;;;;;;12.38;11.05;;;16.00;48.40;;;;;;5051760;28;20179;-62
2022/03/02 03:50:32;;;;;;;12.23;10.68;;;16.00;48.40;;;;;;5051191;28;20477;-61
2022/03/02 03:52:57;;;;;;;11.65;10.52;;;16.00;48.50;;;;;;5051689;28;20274;-62
2022/03/02 03:55:24;;;;;;;10.02;9.05;;;16.00;48.50;;;;;;5051689;28;20223;-61
2022/03/02 03:57:49;;;;;;;11.30;10.18;;;16.00;48.50;;;;;;5051021;28;20178;-62
2022/03/02 04:00:17;;;;;;;12.20;11.10;;;15.90;48.40;;;;;;5051557;28;20638;-62
2022/03/02 04:02:43;;;;;;;11.50;10.38;;;16.00;48.50;;;;;;5051751;28;20699;-63
2022/03/02 04:05:08;;;;;;;11.27;10.27;;;15.90;48.40;;;;;;5050936;28;20206;-62
2022/03/02 04:07:34;;;;;;;10.98;9.98;;;15.90;48.40;;;;;;5051645;28;20583;-63
2022/03/02 04:09:59;;;;;;;10.27;9.27;;;15.90;48.40;;;;;;5051446;28;20174;-63
2022/03/02 04:12:25;;;;;;;11.45;10.35;;;15.90;48.40;;;;;;5051285;28;20274;-63
2022/03/02 04:14:50;;;;;;;11.50;10.35;;;15.90;48.60;;;;;;5051855;28;20286;-63
2022/03/02 04:17:16;;;;;;;11.13;10.07;;;15.90;48.40;;;;;;5050756;28;20185;-63
2022/03/02 04:19:41;;;;;;;10.70;9.70;;;15.90;48.40;;;;;;5051563;28;20542;-63
2022/03/02 04:22:07;;;;;;;11.45;10.35;;;15.90;48.40;;;;;;5051334;28;20274;-63
2022/03/02 04:24:32;;;;;;;11.70;10.50;;;15.90;48.50;;;;;;5050832;28;20174;-63
2022/03/02 04:26:58;;;;;;;12.20;10.52;;;15.80;48.40;;;;;;5051501;28;20186;-62
2022/03/02 04:29:23;;;;;;;11.20;10.10;;;15.80;48.40;;;;;;5051401;28;20175;-61
2022/03/02 04:31:49;;;;;;;11.13;10.13;;;15.90;48.50;;;;;;5050982;28;20202;-63
2022/03/02 04:34:14;;;;;;;11.65;10.55;;;15.80;48.40;;;;;;5051314;28;20171;-63
2022/03/02 04:36:40;;;;;;;11.60;10.50;;;15.90;48.40;;;;;;5051447;28;20207;-63
2022/03/02 04:39:05;;;;;;;11.02;9.98;;;15.80;48.40;;;;;;5050542;28;20167;-64
2022/03/02 04:41:31;;;;;;;11.02;10.00;;;15.80;48.40;;;;;;5051390;28;20175;-64
2022/03/02 04:43:56;;;;;;;11.20;10.00;;;15.80;48.40;;;;;;5051275;28;20171;-63
2022/03/02 04:46:22;;;;;;;11.60;10.45;;;15.80;48.30;;;;;;5050629;28;20175;-64
2022/03/02 04:48:47;;;;;;;11.10;9.75;;;15.80;48.30;;;;;;5051036;28;20629;-62
2022/03/02 04:51:13;;;;;;;11.57;10.38;;;15.80;48.30;;;;;;5051141;28;20217;-62
2022/03/02 04:53:38;;;;;;;11.50;10.30;;;15.80;48.40;;;;;;5050418;28;20250;-61
2022/03/02 04:56:04;;;;;;;11.63;10.43;;;15.80;48.30;;;;;;5050858;28;20253;-63
2022/03/02 04:58:29;;;;;;;11.48;10.30;;;15.80;48.40;;;;;;5051535;28;20259;-64
2022/03/02 05:00:55;;;;;;;11.20;10.05;;;15.80;48.30;;;;;;5050372;28;20673;-64
2022/03/02 05:03:20;;;;;;;10.73;9.73;;;15.80;48.40;;;;;;5051746;28;20175;-64
2022/03/02 05:05:46;;;;;;;11.75;10.55;;;15.80;48.30;;;;;;5051090;28;20229;-64
2022/03/02 05:08:11;;;;;;;10.75;9.75;;;15.70;48.30;;;;;;5050256;28;20575;-63
2022/03/02 05:10:37;;;;;;;10.10;9.18;;;15.70;48.30;;;;;;5051144;28;20179;-63
2022/03/02 05:13:02;;;;;;;12.05;10.63;;;15.70;48.30;;;;;;5051080;28;20576;-63
2022/03/02 05:15:28;;;;;;;11.52;10.40;;;15.70;48.30;;;;;;5050176;28;20579;-63
2022/03/02 05:17:54;;;;;;;10.77;9.65;;;15.70;48.30;;;;;;5050815;28;20179;-64
2022/03/02 05:20:20;;;;;;;10.35;9.35;;;15.70;48.30;;;;;;5054354;28;20258;-63
2022/03/02 05:22:46;;;;;;;10.95;9.95;;;15.70;48.30;;;;;;5053908;28;20194;-63
2022/03/02 05:25:16;;;;;;;10.88;9.88;;;15.70;48.40;;;;;;5054049;28;20178;-62
2022/03/02 05:27:41;;;;;;;11.85;10.40;;;15.60;48.30;;;;;;5053848;28;20534;-62
2022/03/02 05:30:07;;;;;;;11.90;10.48;;;15.70;48.40;;;;;;5054313;28;20179;-63
2022/03/02 05:32:33;;;;;;;10.85;9.75;;;15.70;48.40;;;;;;5054550;28;20183;-62
2022/03/02 05:34:58;;;;;;;11.07;9.98;;;15.70;48.30;;;;;;5053600;28;20208;-64
2022/03/02 05:37:24;;;;;;;11.68;10.55;;;15.60;48.30;;;;;;5054316;28;20175;-65
2022/03/02 05:39:49;;;;;;;11.18;10.13;;;15.60;48.30;;;;;;5054189;28;20213;-65
2022/03/02 05:42:15;;;;;;;11.73;10.63;;;15.60;48.30;;;;;;5053519;28;20187;-64
2022/03/02 05:44:40;;;;;;;11.32;10.23;;;15.60;48.30;;;;;;5054328;28;20175;-63
2022/03/02 05:47:06;;;;;;;11.85;10.75;;;15.60;48.30;;;;;;5053821;28;20536;-64
2022/03/02 05:49:31;;;;;;;12.73;10.52;;;15.60;48.30;;;;;;5053588;28;20183;-62
2022/03/02 05:51:57;;;;;;;11.80;10.60;;;15.60;48.20;;;;;;5053880;28;20179;-63
2022/03/02 05:54:22;;;;;;;11.95;10.60;;;15.60;48.30;;;;;;5053966;28;20322;-63
2022/03/02 05:56:48;;;;;;;11.55;10.45;;;15.60;48.30;;;;;;5053459;28;20630;-63
2022/03/02 05:59:14;;;;;;;11.10;9.93;;;15.60;48.40;;;;;;5053818;28;20179;-64
2022/03/02 06:01:40;;;;;;;11.23;10.13;;;15.60;48.40;;;;;;5054232;28;20178;-64
2022/03/02 06:04:05;;;;;;;11.05;9.95;;;15.60;48.40;;;;;;5052966;28;20268;-65
2022/03/02 06:06:32;;;;;;;10.95;9.85;;;15.70;48.40;;;;;;5053831;28;20257;-64
2022/03/02 06:08:59;;;;;;;10.85;9.75;;;15.70;48.40;;;;;;5053688;28;20245;-63
2022/03/02 06:11:24;;;;;;;9.98;9.07;;;15.70;48.40;;;;;;5053438;28;20198;-63
2022/03/02 06:13:51;;;;;;;10.35;9.35;;;15.80;48.60;;;;;;5053891;28;20478;-63
2022/03/02 06:16:16;;;;;;;10.55;9.45;;;15.90;48.60;;;;;;5053449;28;20264;-63
2022/03/02 06:18:42;;;;;;;9.80;8.85;;;15.90;48.50;;;;;;5052955;28;20171;-64
2022/03/02 06:21:08;;;;;;;10.32;9.32;;;16.00;48.60;;;;;;5053409;28;20171;-63
2022/03/02 06:23:33;;;;;;;10.20;9.20;;;16.10;48.50;;;;;;5052273;28;20175;-63
2022/03/02 06:25:59;;;;;;;10.80;9.70;;;16.20;48.50;;;;;;5052724;28;20592;-62
2022/03/02 06:28:25;;;;;;;9.90;9.00;;;16.20;48.40;;;;;;5053788;28;20175;-62
2022/03/02 06:30:51;;;;;;;9.48;8.57;;;16.30;48.40;;;;;;5052841;28;20178;-63
2022/03/02 06:33:18;;;;;;;10.18;9.23;;;16.40;48.30;;;;;;5053350;28;20182;-63
2022/03/02 06:35:45;;;;;;;10.48;9.45;;;16.40;48.20;;;;;;5053334;28;20207;-64
2022/03/02 06:38:10;;;;;;;10.07;9.18;;;16.50;48.10;;;;;;5052540;28;20187;-66
2022/03/02 06:40:36;;;;;;;11.20;8.85;;;16.50;48.10;;;;;;5053605;28;20179;-64
2022/03/02 06:43:07;;;;;;;10.52;9.43;;;16.60;48.00;;;;;;5051683;28;20175;-65
2022/03/02 06:45:58;;;;;;;9.32;8.43;;;16.60;47.90;;;;;;5052622;28;20235;-64
2022/03/02 06:48:34;;;;;;;10.00;9.02;;;16.70;47.90;;;;;;5052999;28;20194;-63
2022/03/02 06:51:01;;;;;;;9.52;8.63;;;16.60;47.80;;;;;;5052766;28;20308;-63
2022/03/02 06:53:34;;;;;;;9.50;8.68;;;16.70;47.80;;;;;;5052328;28;20175;-62
2022/03/02 06:56:00;;;;;;;8.95;8.05;;;16.60;47.80;;;;;;5052746;28;20249;-63
2022/03/02 06:58:26;;;;;;;10.30;9.35;;;16.60;47.80;;;;;;5052993;28;20220;-64
2022/03/02 07:00:53;;;;;;;9.43;8.52;;;16.50;47.90;;;;;;5050926;28;20180;-65
2022/03/02 07:03:18;;;;;;;9.88;8.98;;;16.50;48.00;;;;;;5053048;28;20195;-65
2022/03/02 07:05:44;;;;;;;10.05;9.15;;;16.50;48.10;;;;;;5052909;28;20641;-65
2022/03/02 07:08:09;;;;;;;9.70;8.57;;;16.50;48.10;;;;;;5050530;28;20238;-64
2022/03/02 07:10:36;;;;;;;10.18;9.23;;;16.60;48.10;;;;;;5052819;28;20549;-62
2022/03/02 07:13:02;;;;;;;9.65;8.65;;;16.70;47.90;;;;;;5052179;28;20177;-62
2022/03/02 07:15:29;;;;;;;10.18;9.18;;;16.80;47.90;;;;;;5052516;28;20202;-62
2022/03/02 07:17:54;;;;;;;10.00;9.10;;;16.80;47.70;;;;;;5052198;28;20195;-64
2022/03/02 07:20:20;;;;;;;9.57;8.57;;;16.90;47.60;;;;;;5051986;28;20182;-68
2022/03/02 07:22:51;;;;;;;10.02;9.02;;;17.00;47.50;;;;;;5052394;28;20174;-69
2022/03/02 07:25:29;;;;;;;10.10;8.80;;;17.00;47.50;;;;;;5052172;28;20171;-70
2022/03/02 07:27:55;;;;;;;9.90;8.63;;;17.20;47.50;;;;;;5051256;28;20175;-68
2022/03/02 07:30:21;;;;;;;9.25;8.30;;;17.30;47.40;;;;;;5052413;28;20175;-68
2022/03/02 07:32:46;;;;;;;10.43;9.40;;;17.40;47.60;;;;;;5052376;28;20221;-69
2022/03/02 07:35:13;;;;;;;9.15;8.07;;;17.60;47.40;;;;;;5051392;28;20376;-68
2022/03/02 07:37:39;;;;;;;10.55;9.25;;;17.80;47.30;;;;;;5052090;28;20649;-68
2022/03/02 07:40:06;;;;;;;9.98;7.97;;;17.90;47.10;;;;;;5052123;28;20187;-68
2022/03/02 07:42:31;;;;;;;9.50;8.55;;;18.00;47.10;;;;;;5050847;28;20233;-69
2022/03/02 07:44:57;;;;;;;9.95;7.93;;;18.10;47.00;;;;;;5051709;28;20179;-68
2022/03/02 07:47:23;;;;;;;10.15;7.82;;;18.20;47.00;;;;;;5051930;28;20167;-69
2022/03/02 07:49:49;;;;;;;8.57;7.78;;;18.20;46.90;;;;;;5051414;28;20193;-69
2022/03/02 07:52:15;;;;;;;10.40;8.15;;;18.30;46.90;;;;;;5051641;28;20179;-68
2022/03/02 07:54:41;;;;;;;9.43;7.93;;;18.30;46.90;;;;;;5051535;28;20263;-69
2022/03/02 07:57:08;;;;;;;8.68;7.30;;;18.50;46.80;;;;;;5050898;28;20502;-67
2022/03/02 07:59:36;;;;;;;10.82;7.72;;;18.50;46.70;;;;;;5051865;28;20661;-68
2022/03/02 08:02:04;;;;;;;10.38;8.35;;;18.50;46.90;;;;;;5051904;28;20179;-68
2022/03/02 08:04:31;;;;;;;8.65;7.43;;;18.50;47.00;;;;;;5049969;28;20258;-69
2022/03/02 08:06:56;;;;;;;8.85;7.30;;;18.50;47.00;;;;;;5051499;28;20224;-70
2022/03/02 08:09:22;;;;;;;9.40;8.07;;;18.50;47.10;;;;;;5050965;28;20214;-71
2022/03/02 08:11:47;;;;;;;9.43;7.35;;;18.50;47.20;;;;;;5051692;28;20531;-71
2022/03/02 08:14:13;;;;;;;7.80;7.03;;;18.50;47.20;;;;;;5051529;28;20583;-71
2022/03/02 08:16:38;;;;;;;8.07;7.28;;;18.50;47.30;;;;;;5050837;28;20823;-69
2022/03/02 08:19:07;;;;;;;9.85;7.03;;;18.60;47.40;;;;;;5051481;28;20175;-69
2022/03/02 08:21:35;;;;;;;8.02;6.97;;;18.60;47.40;;;;;;5051766;28;20185;-70
2022/03/02 08:24:05;;;;;;;7.45;6.75;;;18.60;47.40;;;;;;5050664;28;20179;-70
2022/03/02 08:26:34;;;;;;;7.78;6.65;;;18.60;47.40;;;;;;5050324;28;20583;-68
2022/03/02 08:29:07;;;;;;;9.00;6.80;;;18.60;47.50;;;;;;5051713;28;20329;-69
2022/03/02 08:31:34;;;;;;;10.57;7.38;;;18.60;47.50;;;;;;5051487;28;20179;-68
2022/03/02 08:34:00;;;;;;;7.68;6.10;;;18.60;47.50;;;;;;5050072;28;20631;-67
2022/03/02 08:36:26;;;;;;;8.18;6.75;;;18.60;47.50;;;;;;5051400;28;20265;-67
2022/03/02 08:38:52;;;;;;;8.40;6.57;;;18.70;47.60;;;;;;5042366;28;20179;-67
2022/03/02 08:41:18;;;;;;;9.68;7.38;;;18.60;47.60;;;;;;5036633;28;20171;-68
2022/03/02 08:43:45;;;;;;;8.25;6.85;;;18.70;47.60;;;;;;5051605;28;20182;-68
2022/03/02 08:46:11;;;;;;;7.70;6.65;;;18.70;47.60;;;;;;5040569;28;20207;-68
2022/03/02 08:48:36;;;;;;;7.65;6.68;;;18.70;47.60;;;;;;5034197;28;20195;-67
2022/03/02 08:51:02;;;;;;;8.20;6.50;;;18.70;47.60;;;;;;5051106;28;20187;-68
2022/03/02 08:53:27;;;;;;;8.68;6.93;;;18.60;47.50;;;;;;5051043;28;20563;-67
2022/03/02 08:55:53;;;;;;;9.70;6.70;;;18.60;47.60;;;;;;5053572;28;20666;-68
2022/03/02 08:58:19;;;;;;;7.70;6.63;;;18.60;47.60;;;;;;5055265;28;20258;-67
2022/03/02 09:00:44;;;;;;;7.30;6.45;;;18.60;47.80;;;;;;5053086;28;20179;-67
2022/03/02 09:03:13;;;;;;;6.97;6.22;;;18.50;47.80;;;;;;5054684;28;20191;-67
2022/03/02 09:05:39;;;;;;;7.20;6.50;;;18.50;48.00;;;;;;5054205;28;20179;-67
2022/03/02 09:08:04;;;;;;;7.00;6.40;;;18.50;48.00;;;;;;5053303;28;20179;-67
2022/03/02 09:10:30;;;;;;;8.63;7.28;;;18.50;48.00;;;;;;5053620;28;20175;-68
2022/03/02 09:12:59;;;;;;;7.55;6.65;;;18.60;48.10;;;;;;5053802;28;20175;-68
2022/03/02 09:15:25;;;;;;;7.90;6.68;;;18.60;48.00;;;;;;5054492;28;20207;-69
2022/03/02 09:17:51;;;;;;;7.07;6.40;;;18.60;48.00;;;;;;5053332;28;20614;-68
2022/03/02 09:20:16;;;;;;;7.68;6.75;;;18.70;48.10;;;;;;5053674;28;20182;-67
2022/03/02 09:22:43;;;;;;;6.97;6.28;;;18.70;48.00;;;;;;5054351;28;20183;-67
2022/03/02 09:25:09;;;;;;;7.07;6.38;;;18.70;48.00;;;;;;5053073;28;20282;-68
2022/03/02 09:27:35;;;;;;;7.30;6.38;;;18.60;48.00;;;;;;5053852;28;20274;-68
2022/03/02 09:30:03;;;;;;;7.05;6.35;;;18.60;48.00;;;;;;5054308;28;20206;-67
2022/03/02 09:32:30;;;;;;;6.85;6.07;;;18.60;48.10;;;;;;5054392;28;20202;-67
2022/03/02 09:34:57;;;;;;;6.97;6.38;;;18.60;48.20;;;;;;5053252;28;20570;-68
2022/03/02 09:37:23;;;;;;;6.47;5.93;;;18.60;48.20;;;;;;5054536;28;20179;-69
2022/03/02 09:39:49;;;;;;;7.78;6.57;;;18.60;48.20;;;;;;5054349;28;20179;-69
2022/03/02 09:42:18;;;;;;;7.57;6.78;;;18.60;48.30;;;;;;5053374;28;20194;-69
2022/03/02 09:44:45;;;;;;;9.50;7.07;;;18.60;48.60;;;;;;5053857;28;20337;-68
2022/03/02 09:47:16;;;;;;;6.20;5.50;;;18.60;48.30;;;;;;5033803;28;20257;-68
2022/03/02 09:49:45;;;;;;;8.65;6.28;;;18.70;48.40;;;;;;5033398;28;20607;-69
2022/03/02 09:52:12;;;;;;;6.57;5.85;;;18.60;48.40;;;;;;5033955;28;20187;-69
2022/03/02 09:54:38;;;;;;;8.38;5.90;;;18.60;48.60;;;;;;5033989;28;20219;-68
2022/03/02 09:57:05;;;;;;;6.35;5.65;;;18.60;48.70;;;;;;5033000;28;20211;-68
2022/03/02 09:59:34;;;;;;;6.82;5.70;;;18.60;48.80;;;;;;5033983;28;20267;-68
2022/03/02 10:02:00;;;;;;;6.28;5.70;;;18.60;48.90;;;;;;5032842;28;20532;-67
2022/03/02 10:04:26;;;;;;;5.88;5.38;;;18.60;49.10;;;;;;5032047;28;20695;-68
2022/03/02 10:09:48;;;;;;;6.80;6.10;;;18.60;49.10;;;;;;5032113;28;20693;-71
2022/03/02 10:12:20;;;;;;;7.47;5.60;;;18.60;49.10;;;;;;5032549;28;20249;-70
2022/03/02 10:14:46;;;;;;;6.20;5.60;;;18.60;49.20;;;;;;5032161;28;20265;-69
2022/03/02 10:17:12;;;;;;;5.93;5.38;;;18.60;49.20;;;;;;5031281;28;20183;-69
2022/03/02 10:19:44;;;;;;;6.60;5.72;;;18.60;49.30;;;;;;5032190;28;20176;-70
2022/03/02 10:22:46;;;;;;;11.75;5.53;;;18.60;49.30;;;;;;5032099;28;20203;-70
2022/03/02 10:25:14;;;;;;;6.68;5.28;;;18.60;49.40;;;;;;5013014;28;20183;-72
2022/03/02 10:27:59;;;;;;;8.75;5.50;;;18.60;49.40;;;;;;5033159;28;20650;-71
2022/03/02 10:30:25;;;;;;;8.23;5.55;;;18.60;49.50;;;;;;5031557;28;20188;-70
2022/03/02 10:32:50;;;;;;;6.57;5.55;;;18.60;49.50;;;;;;5015544;28;20172;-70
2022/03/02 10:35:17;;;;;;;6.60;5.35;;;18.60;49.50;;;;;;5015341;28;20338;-69
2022/03/02 10:37:53;;;;;;;5.68;5.18;;;18.60;49.50;;;;;;5015040;28;20184;-68
2022/03/02 10:40:24;;;;;;;5.97;5.47;;;18.70;49.60;;;;;;5032920;28;20179;-66
2022/03/02 10:43:04;;;;;;;6.00;5.20;;;18.70;49.60;;;;;;5033299;28;20191;-67
2022/03/02 10:45:32;;;;;;;8.93;5.47;;;18.60;49.50;;;;;;5038883;28;20178;-70
2022/03/02 10:48:36;;;;;;;6.95;5.32;;;18.60;49.40;;;;;;5051285;28;20601;-67
2022/03/02 10:51:02;;;;;;;7.35;6.30;;;18.70;49.50;;;;;;5052600;28;20167;-69
2022/03/02 10:53:27;;;;;;;6.85;5.00;;;18.70;49.40;;;;;;5050698;28;20190;-69
2022/03/02 10:55:56;;;;;;;7.25;5.15;;;18.70;49.50;;;;;;5051161;28;20215;-68
2022/03/02 10:58:22;;;;;;;6.85;5.57;;;18.70;49.50;;;;;;5052164;28;20171;-67
2022/03/02 11:00:47;;;;;;;6.03;5.28;;;18.70;49.50;;;;;;5051752;28;20578;-67
2022/03/02 11:03:13;;;;;;;7.43;5.22;;;18.70;49.50;;;;;;5052677;28;20278;-68
2022/03/02 11:05:39;;;;;;;6.03;5.32;;;18.80;49.50;;;;;;5051967;28;20271;-67
2022/03/02 11:08:04;;;;;;;5.40;4.85;;;18.70;49.50;;;;;;5052380;28;20175;-68
2022/03/02 11:10:33;;;;;;;6.43;5.28;;;18.80;50.10;;;;;;5052771;28;20282;-67
2022/03/02 11:13:00;;;;;;;5.35;4.85;;;18.70;49.40;;;;;;5051388;28;20684;-66
2022/03/02 11:15:26;;;;;;;6.47;5.13;;;18.70;49.50;;;;;;5052379;28;20225;-69
2022/03/02 11:17:59;;;;;;;11.20;5.93;;;18.70;49.40;;;;;;5050283;28;20178;-68
2022/03/02 11:20:28;;;;;;;8.02;5.38;;;18.70;49.40;;;;;;5051683;28;20266;-68
2022/03/02 11:22:58;;;;;;;5.60;4.85;;;18.70;49.50;;;;;;5051010;28;20183;-67
2022/03/02 11:25:40;;;;;;;6.10;5.35;;;18.70;49.40;;;;;;5052201;28;20254;-68
2022/03/02 11:28:05;;;;;;;7.30;4.70;;;18.80;49.50;;;;;;5051339;28;20269;-68
2022/03/02 11:30:31;;;;;;;10.98;5.60;;;18.80;49.50;;;;;;5051949;28;20209;-67
2022/03/02 11:32:56;;;;;;;5.63;5.05;;;18.80;49.60;;;;;;5050666;28;20229;-66
2022/03/02 11:35:22;;;;;;;5.65;4.70;;;18.80;49.60;;;;;;5049845;28;20207;-67
2022/03/02 11:37:56;;;;;;;5.72;5.22;;;18.80;49.60;;;;;;5051901;28;20225;-68
2022/03/02 11:40:40;;;;;;;5.65;4.03;;;18.80;50.30;;;;;;5051474;28;20185;-68
2022/03/02 11:43:19;;;;;;;10.65;5.40;;;18.80;49.60;;;;;;5052101;28;20197;-68
2022/03/02 11:45:45;;;;;;;5.38;4.88;;;18.90;49.50;;;;;;5043335;28;20273;-68
2022/03/02 11:48:13;;;;;;;6.95;5.45;;;18.80;49.50;;;;;;5031061;28;20282;-68
2022/03/02 11:50:58;;;;;;;6.10;5.05;;;18.80;49.50;;;;;;5031857;28;20184;-68
2022/03/02 11:53:31;;;;;;;6.07;5.47;;;18.80;49.40;;;;;;5031537;28;20194;-68
2022/03/02 11:55:58;;;;;;;6.80;5.20;;;18.80;49.30;;;;;;5031074;28;20215;-68
2022/03/02 11:58:23;;;;;;;5.68;5.05;;;18.80;49.20;;;;;;5014394;28;20666;-67
2022/03/02 12:00:49;;;;;;;5.53;4.70;;;18.80;49.20;;;;;;5031837;28;20183;-67
2022/03/02 12:03:15;;;;;;;5.45;4.95;;;18.80;49.20;;;;;;5031034;28;20174;-68
2022/03/02 12:05:41;;;;;;;5.35;4.85;;;18.80;49.10;;;;;;5032056;28;20317;-68
2022/03/02 12:08:11;;;;;;;6.57;5.05;;;18.80;49.70;;;;;;5013950;28;20274;-68
2022/03/02 12:10:42;;;;;;;5.45;4.95;;;18.80;49.00;;;;;;5031279;28;20168;-70
2022/03/02 12:13:08;;;;;;;6.82;4.78;;;18.80;49.00;;;;;;5031289;28;20584;-69
2022/03/02 12:15:41;;;;;;;4.88;4.47;;;18.70;49.00;;;;;;5030751;28;20643;-69
2022/03/02 12:18:08;;;;;;;5.72;4.38;;;18.80;49.00;;;;;;5031536;28;20168;-68
2022/03/02 12:20:34;;;;;;;6.18;5.25;;;18.80;49.00;;;;;;5031610;28;20611;-68
2022/03/02 12:22:59;;;;;;;5.63;5.03;;;18.70;49.00;;;;;;5030767;28;20187;-68
2022/03/02 12:25:26;;;;;;;5.43;4.85;;;18.70;49.00;;;;;;5031493;28;20544;-69
2022/03/02 12:28:04;;;;;;;6.30;5.43;;;18.70;49.00;;;;;;5032946;28;20203;-68
2022/03/02 12:30:33;;;;;;;5.03;4.53;;;18.70;49.00;;;;;;5035004;28;20183;-68
2022/03/02 12:32:59;;;;;;;4.75;4.30;;;18.70;49.00;;;;;;5035639;28;20179;-68
2022/03/02 12:35:25;;;;;;;4.78;4.35;;;18.70;49.00;;;;;;5035529;28;20226;-68
2022/03/02 12:37:52;;;;;;;4.80;4.40;;;18.70;49.00;;;;;;5034934;28;20172;-68
2022/03/02 12:40:17;;;;;;;5.63;5.07;;;18.60;49.00;;;;;;5035461;28;20195;-68
2022/03/02 12:42:43;;;;;;;5.43;4.28;;;18.70;49.10;;;;;;5035227;28;20188;-68